sensor_id;sensor_type;location;lat;lon;timestamp;pressure;altitude;pressure_sealevel;temperature;humidity
52291;BME280;39663;45.432;28.050;2023-06-14T00:06:35;100920.82;;;20.73;42.71
52291;BME280;39663;45.432;28.050;2023-06-14T00:07:07;100920.42;;;20.64;42.72
52291;BME280;39663;45.432;28.050;2023-06-14T00:07:40;100921.30;;;20.82;42.40
52291;BME280;39663;45.432;28.050;2023-06-14T00:08:13;100918.97;;;20.82;42.49
52291;BME280;39663;45.432;28.050;2023-06-14T00:08:44;100920.37;;;20.69;42.64
52291;BME280;39663;45.432;28.050;2023-06-14T00:09:16;100917.52;;;20.80;42.55
52291;BME280;39663;45.432;28.050;2023-06-14T00:09:47;100920.10;;;20.88;42.42
52291;BME280;39663;45.432;28.050;2023-06-14T00:10:18;100920.04;;;21.11;42.33
52291;BME280;39663;45.432;28.050;2023-06-14T00:10:50;100921.32;;;20.75;42.51
52291;BME280;39663;45.432;28.050;2023-06-14T00:11:21;100919.31;;;20.69;42.75
52291;BME280;39663;45.432;28.050;2023-06-14T00:11:53;100923.22;;;20.75;42.72
52291;BME280;39663;45.432;28.050;2023-06-14T00:12:24;100919.54;;;20.68;42.71
52291;BME280;39663;45.432;28.050;2023-06-14T00:12:55;100921.01;;;20.71;42.73
52291;BME280;39663;45.432;28.050;2023-06-14T00:13:27;100920.99;;;20.58;42.91
52291;BME280;39663;45.432;28.050;2023-06-14T00:13:58;100923.65;;;20.80;42.82
52291;BME280;39663;45.432;28.050;2023-06-14T00:14:30;100924.11;;;20.69;42.78
52291;BME280;39663;45.432;28.050;2023-06-14T00:15:01;100923.39;;;20.60;42.95
52291;BME280;39663;45.432;28.050;2023-06-14T00:15:33;100921.23;;;20.71;43.02
52291;BME280;39663;45.432;28.050;2023-06-14T00:16:05;100923.00;;;20.55;43.05
52291;BME280;39663;45.432;28.050;2023-06-14T00:16:36;100921.62;;;20.52;42.97
52291;BME280;39663;45.432;28.050;2023-06-14T00:17:07;100919.50;;;20.55;42.98
52291;BME280;39663;45.432;28.050;2023-06-14T00:17:39;100921.98;;;20.56;43.08
52291;BME280;39663;45.432;28.050;2023-06-14T00:18:10;100920.66;;;20.60;43.00
52291;BME280;39663;45.432;28.050;2023-06-14T00:18:42;100921.26;;;20.55;43.04
52291;BME280;39663;45.432;28.050;2023-06-14T00:19:13;100922.89;;;20.68;42.93
52291;BME280;39663;45.432;28.050;2023-06-14T00:19:44;100920.24;;;20.46;42.86
52291;BME280;39663;45.432;28.050;2023-06-14T00:20:16;100917.13;;;20.78;42.75
52291;BME280;39663;45.432;28.050;2023-06-14T00:20:47;100918.12;;;20.83;42.72
52291;BME280;39663;45.432;28.050;2023-06-14T00:21:19;100917.59;;;20.81;42.74
52291;BME280;39663;45.432;28.050;2023-06-14T00:21:50;100917.43;;;20.78;42.82
52291;BME280;39663;45.432;28.050;2023-06-14T00:22:21;100914.58;;;20.70;42.79
52291;BME280;39663;45.432;28.050;2023-06-14T00:22:53;100916.53;;;20.61;43.09
52291;BME280;39663;45.432;28.050;2023-06-14T00:23:24;100912.58;;;20.80;43.02
52291;BME280;39663;45.432;28.050;2023-06-14T00:23:57;100912.82;;;20.95;42.82
52291;BME280;39663;45.432;28.050;2023-06-14T00:24:28;100912.54;;;20.63;42.98
52291;BME280;39663;45.432;28.050;2023-06-14T00:24:59;100909.48;;;20.65;42.96
52291;BME280;39663;45.432;28.050;2023-06-14T00:25:31;100906.59;;;20.65;43.01
52291;BME280;39663;45.432;28.050;2023-06-14T00:26:02;100907.76;;;20.67;42.94
52291;BME280;39663;45.432;28.050;2023-06-14T00:26:34;100908.43;;;20.55;42.86
52291;BME280;39663;45.432;28.050;2023-06-14T00:27:06;100907.30;;;20.31;43.18
52291;BME280;39663;45.432;28.050;2023-06-14T00:27:37;100906.63;;;20.64;42.89
52291;BME280;39663;45.432;28.050;2023-06-14T00:28:08;100903.36;;;20.44;42.97
52291;BME280;39663;45.432;28.050;2023-06-14T00:28:40;100905.08;;;20.72;42.82
52291;BME280;39663;45.432;28.050;2023-06-14T00:29:11;100907.30;;;20.71;42.86
52291;BME280;39663;45.432;28.050;2023-06-14T00:29:43;100904.86;;;20.80;42.68
52291;BME280;39663;45.432;28.050;2023-06-14T00:30:14;100906.38;;;20.71;42.79
52291;BME280;39663;45.432;28.050;2023-06-14T00:30:46;100905.47;;;20.61;43.01
52291;BME280;39663;45.432;28.050;2023-06-14T00:31:17;100905.44;;;20.55;42.98
52291;BME280;39663;45.432;28.050;2023-06-14T00:31:49;100903.98;;;20.58;43.02
52291;BME280;39663;45.432;28.050;2023-06-14T00:32:20;100904.99;;;20.35;43.03
52291;BME280;39663;45.432;28.050;2023-06-14T00:32:52;100905.85;;;20.63;42.87
52291;BME280;39663;45.432;28.050;2023-06-14T00:33:23;100905.37;;;20.73;42.75
52291;BME280;39663;45.432;28.050;2023-06-14T00:33:55;100905.66;;;20.62;42.89
52291;BME280;39663;45.432;28.050;2023-06-14T00:34:26;100905.13;;;20.69;42.79
52291;BME280;39663;45.432;28.050;2023-06-14T00:34:57;100908.16;;;20.50;42.76
52291;BME280;39663;45.432;28.050;2023-06-14T00:35:29;100905.95;;;20.57;43.09
52291;BME280;39663;45.432;28.050;2023-06-14T00:36:00;100904.43;;;20.53;42.91
52291;BME280;39663;45.432;28.050;2023-06-14T00:36:32;100906.70;;;20.50;43.05
52291;BME280;39663;45.432;28.050;2023-06-14T00:37:03;100904.38;;;20.56;42.96
52291;BME280;39663;45.432;28.050;2023-06-14T00:37:35;100908.15;;;20.47;43.08
52291;BME280;39663;45.432;28.050;2023-06-14T00:38:07;100907.60;;;20.53;42.99
52291;BME280;39663;45.432;28.050;2023-06-14T00:38:38;100905.54;;;20.68;43.11
52291;BME280;39663;45.432;28.050;2023-06-14T00:39:10;100906.31;;;20.58;43.20
52291;BME280;39663;45.432;28.050;2023-06-14T00:39:41;100907.18;;;20.58;43.37
52291;BME280;39663;45.432;28.050;2023-06-14T00:40:12;100906.39;;;20.39;43.26
52291;BME280;39663;45.432;28.050;2023-06-14T00:40:44;100907.87;;;20.37;43.37
52291;BME280;39663;45.432;28.050;2023-06-14T00:41:15;100907.21;;;20.41;43.30
52291;BME280;39663;45.432;28.050;2023-06-14T00:41:46;100907.31;;;20.27;43.64
52291;BME280;39663;45.432;28.050;2023-06-14T00:42:25;100907.89;;;20.30;43.47
52291;BME280;39663;45.432;28.050;2023-06-14T00:42:57;100908.01;;;20.73;43.48
52291;BME280;39663;45.432;28.050;2023-06-14T00:43:29;100907.20;;;20.38;43.43
52291;BME280;39663;45.432;28.050;2023-06-14T00:44:00;100905.50;;;20.43;43.27
52291;BME280;39663;45.432;28.050;2023-06-14T00:44:32;100905.94;;;20.44;43.27
52291;BME280;39663;45.432;28.050;2023-06-14T00:45:04;100904.89;;;20.42;43.33
52291;BME280;39663;45.432;28.050;2023-06-14T00:45:35;100903.26;;;20.33;43.13
52291;BME280;39663;45.432;28.050;2023-06-14T00:46:07;100903.56;;;20.42;43.33
52291;BME280;39663;45.432;28.050;2023-06-14T00:46:38;100903.96;;;20.37;43.33
52291;BME280;39663;45.432;28.050;2023-06-14T00:47:10;100900.51;;;20.66;43.38
52291;BME280;39663;45.432;28.050;2023-06-14T00:47:42;100898.35;;;20.48;43.31
52291;BME280;39663;45.432;28.050;2023-06-14T00:48:14;100901.49;;;20.42;43.25
52291;BME280;39663;45.432;28.050;2023-06-14T00:48:46;100902.10;;;20.18;43.45
52291;BME280;39663;45.432;28.050;2023-06-14T00:49:19;100901.12;;;20.14;43.48
52291;BME280;39663;45.432;28.050;2023-06-14T00:49:52;100901.89;;;20.44;43.35
52291;BME280;39663;45.432;28.050;2023-06-14T00:50:24;100900.76;;;20.44;43.32
52291;BME280;39663;45.432;28.050;2023-06-14T00:50:56;100901.66;;;20.33;43.49
52291;BME280;39663;45.432;28.050;2023-06-14T00:51:28;100903.94;;;20.59;43.41
52291;BME280;39663;45.432;28.050;2023-06-14T00:51:59;100903.26;;;20.44;43.34
52291;BME280;39663;45.432;28.050;2023-06-14T00:52:31;100904.69;;;20.55;43.33
52291;BME280;39663;45.432;28.050;2023-06-14T00:53:02;100906.07;;;20.52;43.22
52291;BME280;39663;45.432;28.050;2023-06-14T00:53:34;100904.72;;;20.27;43.35
52291;BME280;39663;45.432;28.050;2023-06-14T00:54:05;100903.94;;;20.51;43.27
52291;BME280;39663;45.432;28.050;2023-06-14T00:54:37;100905.03;;;20.22;43.42
52291;BME280;39663;45.432;28.050;2023-06-14T00:55:09;100905.23;;;20.22;43.61
52291;BME280;39663;45.432;28.050;2023-06-14T00:55:40;100906.76;;;20.27;43.52
52291;BME280;39663;45.432;28.050;2023-06-14T00:56:12;100907.58;;;20.38;43.44
52291;BME280;39663;45.432;28.050;2023-06-14T00:56:44;100907.44;;;20.35;43.61
52291;BME280;39663;45.432;28.050;2023-06-14T00:57:15;100908.41;;;20.37;43.45
52291;BME280;39663;45.432;28.050;2023-06-14T00:57:47;100907.68;;;20.65;43.37
52291;BME280;39663;45.432;28.050;2023-06-14T00:58:22;100905.60;;;20.33;43.51
52291;BME280;39663;45.432;28.050;2023-06-14T00:58:53;100904.90;;;20.24;43.59
52291;BME280;39663;45.432;28.050;2023-06-14T00:59:26;100906.99;;;20.33;43.58
52291;BME280;39663;45.432;28.050;2023-06-14T00:59:57;100905.58;;;20.08;43.92
52291;BME280;39663;45.432;28.050;2023-06-14T01:00:29;100903.41;;;19.90;43.89
52291;BME280;39663;45.432;28.050;2023-06-14T01:01:14;100905.04;;;20.27;43.93
52291;BME280;39663;45.432;28.050;2023-06-14T01:01:46;100905.85;;;20.63;43.65
52291;BME280;39663;45.432;28.050;2023-06-14T01:02:18;100903.61;;;20.40;43.65
52291;BME280;39663;45.432;28.050;2023-06-14T01:02:49;100903.30;;;20.24;43.57
52291;BME280;39663;45.432;28.050;2023-06-14T01:03:20;100902.46;;;20.40;43.54
52291;BME280;39663;45.432;28.050;2023-06-14T01:03:52;100900.87;;;20.09;43.83
52291;BME280;39663;45.432;28.050;2023-06-14T01:04:23;100902.15;;;20.33;43.80
52291;BME280;39663;45.432;28.050;2023-06-14T01:04:55;100901.89;;;20.20;43.91
52291;BME280;39663;45.432;28.050;2023-06-14T01:05:27;100899.70;;;20.00;44.07
52291;BME280;39663;45.432;28.050;2023-06-14T01:06:05;100900.50;;;20.01;44.17
52291;BME280;39663;45.432;28.050;2023-06-14T01:06:47;100900.89;;;20.07;44.02
52291;BME280;39663;45.432;28.050;2023-06-14T01:07:33;100901.47;;;20.44;43.74
52291;BME280;39663;45.432;28.050;2023-06-14T01:08:17;100902.72;;;20.20;43.59
52291;BME280;39663;45.432;28.050;2023-06-14T01:08:58;100899.23;;;20.06;43.73
52291;BME280;39663;45.432;28.050;2023-06-14T01:09:39;100899.22;;;20.09;43.70
52291;BME280;39663;45.432;28.050;2023-06-14T01:10:26;100899.87;;;20.21;43.97
52291;BME280;39663;45.432;28.050;2023-06-14T01:11:05;100902.13;;;20.03;43.89
52291;BME280;39663;45.432;28.050;2023-06-14T01:11:43;100900.85;;;20.30;44.07
52291;BME280;39663;45.432;28.050;2023-06-14T01:12:24;100902.44;;;20.11;43.87
52291;BME280;39663;45.432;28.050;2023-06-14T01:13:07;100902.36;;;20.50;43.45
52291;BME280;39663;45.432;28.050;2023-06-14T01:13:43;100899.55;;;20.44;43.40
52291;BME280;39663;45.432;28.050;2023-06-14T01:14:16;100902.66;;;20.29;43.31
52291;BME280;39663;45.432;28.050;2023-06-14T01:14:48;100900.33;;;20.26;43.38
52291;BME280;39663;45.432;28.050;2023-06-14T01:15:21;100898.17;;;20.40;43.64
52291;BME280;39663;45.432;28.050;2023-06-14T01:15:54;100898.92;;;20.14;43.72
52291;BME280;39663;45.432;28.050;2023-06-14T01:16:27;100900.28;;;20.15;43.58
52291;BME280;39663;45.432;28.050;2023-06-14T01:16:59;100899.33;;;20.17;43.55
52291;BME280;39663;45.432;28.050;2023-06-14T01:17:31;100898.25;;;20.13;43.76
52291;BME280;39663;45.432;28.050;2023-06-14T01:18:04;100900.50;;;19.78;44.18
52291;BME280;39663;45.432;28.050;2023-06-14T01:18:36;100898.22;;;20.06;43.88
52291;BME280;39663;45.432;28.050;2023-06-14T01:19:11;100899.37;;;20.09;43.61
52291;BME280;39663;45.432;28.050;2023-06-14T01:19:43;100898.52;;;20.30;43.63
52291;BME280;39663;45.432;28.050;2023-06-14T01:20:15;100899.18;;;20.19;43.37
52291;BME280;39663;45.432;28.050;2023-06-14T01:20:47;100900.96;;;20.16;43.50
52291;BME280;39663;45.432;28.050;2023-06-14T01:21:23;100898.68;;;20.27;43.48
52291;BME280;39663;45.432;28.050;2023-06-14T01:21:55;100900.65;;;20.48;43.14
52291;BME280;39663;45.432;28.050;2023-06-14T01:22:27;100897.64;;;20.11;43.71
52291;BME280;39663;45.432;28.050;2023-06-14T01:22:59;100900.59;;;20.34;43.66
52291;BME280;39663;45.432;28.050;2023-06-14T01:23:31;100898.81;;;20.56;43.49
52291;BME280;39663;45.432;28.050;2023-06-14T01:24:03;100897.54;;;20.50;43.58
52291;BME280;39663;45.432;28.050;2023-06-14T01:24:34;100896.73;;;20.12;43.51
52291;BME280;39663;45.432;28.050;2023-06-14T01:25:07;100900.21;;;20.20;43.46
52291;BME280;39663;45.432;28.050;2023-06-14T01:25:38;100894.97;;;20.09;43.61
52291;BME280;39663;45.432;28.050;2023-06-14T01:26:10;100896.18;;;20.16;43.65
52291;BME280;39663;45.432;28.050;2023-06-14T01:26:41;100899.38;;;20.18;43.77
52291;BME280;39663;45.432;28.050;2023-06-14T01:27:13;100900.34;;;20.14;43.93
52291;BME280;39663;45.432;28.050;2023-06-14T01:27:45;100899.93;;;19.91;43.98
52291;BME280;39663;45.432;28.050;2023-06-14T01:28:16;100899.90;;;20.21;43.77
52291;BME280;39663;45.432;28.050;2023-06-14T01:28:49;100901.02;;;20.16;43.89
52291;BME280;39663;45.432;28.050;2023-06-14T01:29:21;100904.91;;;19.94;43.94
52291;BME280;39663;45.432;28.050;2023-06-14T01:29:54;100903.45;;;20.01;43.63
52291;BME280;39663;45.432;28.050;2023-06-14T01:30:26;100901.16;;;20.19;43.65
52291;BME280;39663;45.432;28.050;2023-06-14T01:31:00;100906.99;;;20.23;43.68
52291;BME280;39663;45.432;28.050;2023-06-14T01:31:32;100907.58;;;20.15;43.97
52291;BME280;39663;45.432;28.050;2023-06-14T01:32:06;100906.53;;;20.01;43.62
52291;BME280;39663;45.432;28.050;2023-06-14T01:32:38;100908.06;;;19.89;43.97
52291;BME280;39663;45.432;28.050;2023-06-14T01:33:09;100911.00;;;20.15;44.04
52291;BME280;39663;45.432;28.050;2023-06-14T01:33:41;100913.70;;;20.11;43.87
52291;BME280;39663;45.432;28.050;2023-06-14T01:34:13;100911.09;;;20.00;44.33
52291;BME280;39663;45.432;28.050;2023-06-14T01:34:45;100911.95;;;20.06;44.00
52291;BME280;39663;45.432;28.050;2023-06-14T01:35:16;100914.71;;;19.84;44.17
52291;BME280;39663;45.432;28.050;2023-06-14T01:35:49;100913.09;;;20.04;44.16
52291;BME280;39663;45.432;28.050;2023-06-14T01:36:22;100912.58;;;19.99;44.08
52291;BME280;39663;45.432;28.050;2023-06-14T01:36:57;100913.18;;;20.48;43.77
52291;BME280;39663;45.432;28.050;2023-06-14T01:37:30;100916.15;;;20.07;44.11
52291;BME280;39663;45.432;28.050;2023-06-14T01:38:02;100915.14;;;20.09;43.65
52291;BME280;39663;45.432;28.050;2023-06-14T01:38:34;100914.74;;;20.20;43.88
52291;BME280;39663;45.432;28.050;2023-06-14T01:39:07;100914.66;;;20.16;43.78
52291;BME280;39663;45.432;28.050;2023-06-14T01:39:39;100915.24;;;20.17;43.82
52291;BME280;39663;45.432;28.050;2023-06-14T01:40:13;100915.24;;;20.19;43.79
52291;BME280;39663;45.432;28.050;2023-06-14T01:40:46;100918.55;;;20.16;43.97
52291;BME280;39663;45.432;28.050;2023-06-14T01:41:21;100919.27;;;20.08;43.94
52291;BME280;39663;45.432;28.050;2023-06-14T01:41:54;100918.77;;;20.13;43.80
52291;BME280;39663;45.432;28.050;2023-06-14T01:42:25;100919.99;;;20.02;43.77
52291;BME280;39663;45.432;28.050;2023-06-14T01:42:57;100918.84;;;20.02;43.74
52291;BME280;39663;45.432;28.050;2023-06-14T01:43:30;100921.01;;;20.35;43.92
52291;BME280;39663;45.432;28.050;2023-06-14T01:44:02;100921.54;;;20.14;43.87
52291;BME280;39663;45.432;28.050;2023-06-14T01:44:34;100921.87;;;19.93;43.93
52291;BME280;39663;45.432;28.050;2023-06-14T01:45:08;100921.27;;;19.95;43.89
52291;BME280;39663;45.432;28.050;2023-06-14T01:45:41;100920.56;;;19.87;44.03
52291;BME280;39663;45.432;28.050;2023-06-14T01:46:13;100922.13;;;19.99;43.79
52291;BME280;39663;45.432;28.050;2023-06-14T01:46:46;100921.74;;;20.21;43.68
52291;BME280;39663;45.432;28.050;2023-06-14T01:47:18;100921.08;;;20.00;43.84
52291;BME280;39663;45.432;28.050;2023-06-14T01:47:50;100924.06;;;19.84;44.11
52291;BME280;39663;45.432;28.050;2023-06-14T01:48:23;100924.85;;;20.23;44.00
52291;BME280;39663;45.432;28.050;2023-06-14T01:48:54;100921.38;;;20.03;44.26
52291;BME280;39663;45.432;28.050;2023-06-14T01:49:26;100924.53;;;20.10;43.87
52291;BME280;39663;45.432;28.050;2023-06-14T01:49:58;100922.57;;;20.10;43.69
52291;BME280;39663;45.432;28.050;2023-06-14T01:50:30;100924.05;;;19.86;43.85
52291;BME280;39663;45.432;28.050;2023-06-14T01:51:02;100924.92;;;20.08;44.01
52291;BME280;39663;45.432;28.050;2023-06-14T01:51:33;100924.16;;;20.36;43.65
52291;BME280;39663;45.432;28.050;2023-06-14T01:52:05;100927.78;;;20.03;43.96
52291;BME280;39663;45.432;28.050;2023-06-14T01:52:37;100926.33;;;20.33;43.77
52291;BME280;39663;45.432;28.050;2023-06-14T01:53:10;100923.73;;;20.12;43.86
52291;BME280;39663;45.432;28.050;2023-06-14T01:53:41;100924.63;;;20.02;43.88
52291;BME280;39663;45.432;28.050;2023-06-14T01:54:13;100928.59;;;19.81;44.07
52291;BME280;39663;45.432;28.050;2023-06-14T01:54:44;100926.32;;;19.98;44.05
52291;BME280;39663;45.432;28.050;2023-06-14T01:55:16;100926.34;;;20.00;43.87
52291;BME280;39663;45.432;28.050;2023-06-14T01:55:47;100923.47;;;20.01;44.03
52291;BME280;39663;45.432;28.050;2023-06-14T01:56:19;100925.12;;;19.96;44.18
52291;BME280;39663;45.432;28.050;2023-06-14T01:56:50;100921.94;;;20.26;43.76
52291;BME280;39663;45.432;28.050;2023-06-14T01:57:22;100920.13;;;19.99;43.81
52291;BME280;39663;45.432;28.050;2023-06-14T01:57:54;100920.86;;;19.77;43.95
52291;BME280;39663;45.432;28.050;2023-06-14T01:58:25;100918.64;;;19.96;43.98
52291;BME280;39663;45.432;28.050;2023-06-14T01:58:57;100917.31;;;20.16;44.11
52291;BME280;39663;45.432;28.050;2023-06-14T01:59:28;100918.81;;;20.15;43.85
52291;BME280;39663;45.432;28.050;2023-06-14T02:00:00;100916.99;;;20.21;43.95
52291;BME280;39663;45.432;28.050;2023-06-14T02:00:31;100917.47;;;20.12;43.58
52291;BME280;39663;45.432;28.050;2023-06-14T02:01:02;100919.03;;;19.78;44.05
52291;BME280;39663;45.432;28.050;2023-06-14T02:01:34;100916.94;;;20.07;43.90
52291;BME280;39663;45.432;28.050;2023-06-14T02:02:05;100919.57;;;19.91;43.69
52291;BME280;39663;45.432;28.050;2023-06-14T02:02:37;100920.97;;;20.13;43.53
52291;BME280;39663;45.432;28.050;2023-06-14T02:03:08;100922.64;;;19.92;43.48
52291;BME280;39663;45.432;28.050;2023-06-14T02:03:40;100923.00;;;19.84;43.85
52291;BME280;39663;45.432;28.050;2023-06-14T02:04:11;100926.10;;;19.95;44.00
52291;BME280;39663;45.432;28.050;2023-06-14T02:04:42;100924.33;;;20.29;43.71
52291;BME280;39663;45.432;28.050;2023-06-14T02:05:14;100928.97;;;19.92;44.26
52291;BME280;39663;45.432;28.050;2023-06-14T02:05:46;100928.31;;;19.92;44.18
52291;BME280;39663;45.432;28.050;2023-06-14T02:06:17;100929.36;;;19.88;44.31
52291;BME280;39663;45.432;28.050;2023-06-14T02:06:49;100927.63;;;19.63;44.01
52291;BME280;39663;45.432;28.050;2023-06-14T02:07:20;100925.65;;;19.98;44.05
52291;BME280;39663;45.432;28.050;2023-06-14T02:07:51;100924.40;;;19.93;44.37
52291;BME280;39663;45.432;28.050;2023-06-14T02:08:23;100922.83;;;19.99;44.40
52291;BME280;39663;45.432;28.050;2023-06-14T02:08:54;100920.14;;;19.96;44.37
52291;BME280;39663;45.432;28.050;2023-06-14T02:09:26;100921.88;;;19.80;44.18
52291;BME280;39663;45.432;28.050;2023-06-14T02:09:58;100918.43;;;19.85;44.20
52291;BME280;39663;45.432;28.050;2023-06-14T02:10:29;100920.31;;;20.03;44.29
52291;BME280;39663;45.432;28.050;2023-06-14T02:11:00;100921.00;;;20.12;44.08
52291;BME280;39663;45.432;28.050;2023-06-14T02:11:32;100922.01;;;20.03;44.24
52291;BME280;39663;45.432;28.050;2023-06-14T02:12:03;100920.47;;;19.84;44.24
52291;BME280;39663;45.432;28.050;2023-06-14T02:12:35;100921.17;;;19.87;44.24
52291;BME280;39663;45.432;28.050;2023-06-14T02:13:06;100923.02;;;19.86;44.63
52291;BME280;39663;45.432;28.050;2023-06-14T02:13:38;100924.76;;;19.99;44.37
52291;BME280;39663;45.432;28.050;2023-06-14T02:14:09;100924.87;;;19.88;44.13
52291;BME280;39663;45.432;28.050;2023-06-14T02:14:40;100924.25;;;20.10;44.21
52291;BME280;39663;45.432;28.050;2023-06-14T02:15:12;100924.78;;;19.84;44.35
52291;BME280;39663;45.432;28.050;2023-06-14T02:15:43;100927.88;;;19.65;44.67
52291;BME280;39663;45.432;28.050;2023-06-14T02:16:15;100928.54;;;19.72;44.59
52291;BME280;39663;45.432;28.050;2023-06-14T02:16:46;100928.94;;;19.87;44.43
52291;BME280;39663;45.432;28.050;2023-06-14T02:17:18;100927.42;;;20.19;44.17
52291;BME280;39663;45.432;28.050;2023-06-14T02:17:49;100927.29;;;20.01;44.36
52291;BME280;39663;45.432;28.050;2023-06-14T02:18:20;100926.03;;;19.60;44.32
52291;BME280;39663;45.432;28.050;2023-06-14T02:18:52;100925.90;;;19.86;44.37
52291;BME280;39663;45.432;28.050;2023-06-14T02:19:23;100927.24;;;20.12;44.29
52291;BME280;39663;45.432;28.050;2023-06-14T02:19:55;100927.31;;;20.00;44.19
52291;BME280;39663;45.432;28.050;2023-06-14T02:20:26;100923.00;;;20.02;44.06
52291;BME280;39663;45.432;28.050;2023-06-14T02:20:57;100926.93;;;19.93;44.31
52291;BME280;39663;45.432;28.050;2023-06-14T02:21:29;100926.20;;;20.05;44.40
52291;BME280;39663;45.432;28.050;2023-06-14T02:22:00;100927.40;;;19.95;44.36
52291;BME280;39663;45.432;28.050;2023-06-14T02:22:32;100926.26;;;20.15;44.23
52291;BME280;39663;45.432;28.050;2023-06-14T02:23:03;100928.44;;;20.01;44.47
52291;BME280;39663;45.432;28.050;2023-06-14T02:23:34;100928.22;;;19.88;44.30
52291;BME280;39663;45.432;28.050;2023-06-14T02:24:06;100927.65;;;19.97;44.37
52291;BME280;39663;45.432;28.050;2023-06-14T02:24:38;100927.09;;;20.11;44.36
52291;BME280;39663;45.432;28.050;2023-06-14T02:25:09;100928.63;;;19.76;44.56
52291;BME280;39663;45.432;28.050;2023-06-14T02:25:40;100930.21;;;20.00;44.44
52291;BME280;39663;45.432;28.050;2023-06-14T02:26:12;100931.44;;;20.05;44.43
52291;BME280;39663;45.432;28.050;2023-06-14T02:26:43;100930.29;;;20.06;44.52
52291;BME280;39663;45.432;28.050;2023-06-14T02:27:15;100929.53;;;19.80;44.54
52291;BME280;39663;45.432;28.050;2023-06-14T02:27:46;100928.91;;;19.75;44.60
52291;BME280;39663;45.432;28.050;2023-06-14T02:28:18;100931.47;;;19.74;44.73
52291;BME280;39663;45.432;28.050;2023-06-14T02:28:49;100927.91;;;19.93;44.74
52291;BME280;39663;45.432;28.050;2023-06-14T02:29:21;100930.11;;;19.96;44.63
52291;BME280;39663;45.432;28.050;2023-06-14T02:29:52;100931.77;;;20.08;44.40
52291;BME280;39663;45.432;28.050;2023-06-14T02:30:23;100931.43;;;19.87;44.43
52291;BME280;39663;45.432;28.050;2023-06-14T02:30:55;100931.76;;;19.99;44.53
52291;BME280;39663;45.432;28.050;2023-06-14T02:31:26;100931.73;;;20.05;44.49
52291;BME280;39663;45.432;28.050;2023-06-14T02:31:58;100930.00;;;20.06;44.48
52291;BME280;39663;45.432;28.050;2023-06-14T02:32:29;100933.02;;;19.92;44.69
52291;BME280;39663;45.432;28.050;2023-06-14T02:33:00;100934.15;;;19.95;44.64
52291;BME280;39663;45.432;28.050;2023-06-14T02:33:32;100935.30;;;19.91;44.78
52291;BME280;39663;45.432;28.050;2023-06-14T02:34:03;100933.86;;;19.73;44.66
52291;BME280;39663;45.432;28.050;2023-06-14T02:34:35;100936.02;;;19.88;44.85
52291;BME280;39663;45.432;28.050;2023-06-14T02:35:07;100935.19;;;19.89;44.82
52291;BME280;39663;45.432;28.050;2023-06-14T02:35:39;100932.79;;;19.81;44.44
52291;BME280;39663;45.432;28.050;2023-06-14T02:36:10;100933.98;;;19.89;44.74
52291;BME280;39663;45.432;28.050;2023-06-14T02:36:42;100932.91;;;19.61;44.75
52291;BME280;39663;45.432;28.050;2023-06-14T02:37:13;100932.38;;;19.68;44.78
52291;BME280;39663;45.432;28.050;2023-06-14T02:37:45;100931.61;;;19.79;44.93
52291;BME280;39663;45.432;28.050;2023-06-14T02:38:16;100932.26;;;19.73;44.71
52291;BME280;39663;45.432;28.050;2023-06-14T02:38:48;100933.23;;;19.94;44.64
52291;BME280;39663;45.432;28.050;2023-06-14T02:39:19;100932.01;;;19.67;44.83
52291;BME280;39663;45.432;28.050;2023-06-14T02:39:51;100933.16;;;19.90;44.63
52291;BME280;39663;45.432;28.050;2023-06-14T02:40:23;100931.63;;;19.78;44.76
52291;BME280;39663;45.432;28.050;2023-06-14T02:40:54;100932.73;;;19.81;44.80
52291;BME280;39663;45.432;28.050;2023-06-14T02:41:26;100931.81;;;19.75;44.93
52291;BME280;39663;45.432;28.050;2023-06-14T02:41:57;100932.06;;;19.71;45.00
52291;BME280;39663;45.432;28.050;2023-06-14T02:42:29;100932.85;;;19.78;44.82
52291;BME280;39663;45.432;28.050;2023-06-14T02:43:00;100933.82;;;19.82;44.78
52291;BME280;39663;45.432;28.050;2023-06-14T02:43:31;100933.38;;;19.79;44.85
52291;BME280;39663;45.432;28.050;2023-06-14T02:44:03;100935.48;;;19.67;45.15
52291;BME280;39663;45.432;28.050;2023-06-14T02:44:35;100936.32;;;19.76;44.87
52291;BME280;39663;45.432;28.050;2023-06-14T02:45:08;100936.61;;;19.74;44.83
52291;BME280;39663;45.432;28.050;2023-06-14T02:45:39;100935.77;;;19.79;44.91
52291;BME280;39663;45.432;28.050;2023-06-14T02:46:11;100936.32;;;19.81;44.84
52291;BME280;39663;45.432;28.050;2023-06-14T02:46:42;100938.54;;;19.79;44.86
52291;BME280;39663;45.432;28.050;2023-06-14T02:47:14;100938.17;;;19.65;45.10
52291;BME280;39663;45.432;28.050;2023-06-14T02:47:45;100937.29;;;19.60;45.26
52291;BME280;39663;45.432;28.050;2023-06-14T02:48:17;100936.15;;;19.69;45.14
52291;BME280;39663;45.432;28.050;2023-06-14T02:48:48;100938.60;;;19.71;45.10
52291;BME280;39663;45.432;28.050;2023-06-14T02:49:20;100938.84;;;19.82;44.80
52291;BME280;39663;45.432;28.050;2023-06-14T02:49:51;100939.21;;;19.63;44.81
52291;BME280;39663;45.432;28.050;2023-06-14T02:50:22;100939.43;;;19.53;45.01
52291;BME280;39663;45.432;28.050;2023-06-14T02:50:54;100939.41;;;19.48;45.14
52291;BME280;39663;45.432;28.050;2023-06-14T02:51:25;100938.36;;;19.77;44.79
52291;BME280;39663;45.432;28.050;2023-06-14T02:51:57;100937.32;;;19.78;44.74
52291;BME280;39663;45.432;28.050;2023-06-14T02:52:28;100940.29;;;19.79;44.89